createdAt,value
2022-12-19T00:00:08.618Z,70.30
2022-12-19T00:02:42.601Z,70.30
2022-12-19T00:05:10.943Z,71.10
2022-12-19T00:07:38.332Z,70.30
2022-12-19T00:10:07.169Z,70.30
2022-12-19T00:12:34.560Z,70.30
2022-12-19T00:15:01.877Z,70.30
2022-12-19T00:17:29.435Z,70.20
2022-12-19T00:19:57.090Z,69.90
2022-12-19T00:22:24.752Z,69.90
2022-12-19T00:24:52.069Z,69.90
2022-12-19T00:27:19.278Z,69.90
2022-12-19T00:29:47.652Z,69.90
2022-12-19T00:32:15.718Z,69.60
2022-12-19T00:34:43.892Z,69.60
2022-12-19T00:37:11.934Z,69.50
2022-12-19T00:39:39.167Z,69.40
2022-12-19T00:42:07.892Z,70.10
2022-12-19T00:44:35.316Z,69.30
2022-12-19T00:47:02.730Z,69.30
2022-12-19T00:49:30.717Z,69.30
2022-12-19T00:51:59.964Z,69.20
2022-12-19T00:54:28.090Z,69.20
2022-12-19T00:56:55.830Z,69.20
2022-12-19T00:59:26.720Z,69.10
2022-12-19T01:01:57.571Z,69.00
2022-12-19T01:04:28.600Z,69.10
2022-12-19T01:07:01.144Z,69.00
2022-12-19T01:09:33.329Z,69.10
2022-12-19T01:12:19.393Z,68.90
2022-12-19T01:14:48.357Z,69.00
2022-12-19T01:17:15.713Z,69.10
2022-12-19T01:19:44.624Z,69.10
2022-12-19T01:22:14.038Z,69.20
2022-12-19T01:24:41.906Z,69.10
2022-12-19T01:27:09.283Z,69.10
2022-12-19T01:29:44.655Z,69.20
2022-12-19T01:32:21.435Z,69.30
2022-12-19T01:34:48.940Z,69.40
2022-12-19T01:37:20.258Z,69.50
2022-12-19T01:39:47.933Z,69.60
2022-12-19T01:42:23.507Z,69.70
2022-12-19T01:45:13.685Z,69.80
2022-12-19T01:47:53.413Z,70.00
2022-12-19T01:50:29.270Z,70.00
2022-12-19T01:52:58.232Z,69.90
2022-12-19T01:55:26.594Z,69.90
2022-12-19T01:57:56.102Z,70.50
2022-12-19T02:00:23.553Z,69.70
2022-12-19T02:03:22.502Z,69.80
2022-12-19T02:05:52.298Z,69.80
2022-12-19T02:08:20.692Z,69.70
2022-12-19T02:10:48.499Z,69.70
2022-12-19T02:13:17.914Z,69.70
2022-12-19T02:16:18.144Z,69.60
2022-12-19T02:19:08.440Z,69.40
2022-12-19T02:22:01.219Z,69.50
2022-12-19T02:24:43.522Z,69.60
2022-12-19T02:27:42.244Z,69.50
2022-12-19T02:30:16.594Z,69.30
2022-12-19T02:33:05.602Z,69.40
2022-12-19T02:35:47.084Z,69.40
2022-12-19T02:38:43.687Z,69.50
2022-12-19T02:41:43.420Z,69.40
2022-12-19T02:44:52.834Z,69.40
2022-12-19T02:47:22.312Z,69.50
2022-12-19T02:49:49.996Z,69.60
2022-12-19T02:52:20.311Z,69.50
2022-12-19T02:54:56.329Z,69.50
2022-12-19T02:57:38.974Z,69.40
2022-12-19T03:00:12.984Z,69.30
2022-12-19T03:03:10.216Z,69.30
2022-12-19T03:05:50.422Z,69.30
2022-12-19T03:08:28.684Z,69.30
2022-12-19T03:11:13.522Z,69.40
2022-12-19T03:14:07.407Z,69.60
2022-12-19T03:16:36.652Z,69.50
2022-12-19T03:19:08.533Z,69.50
2022-12-19T03:21:57.814Z,69.50
2022-12-19T03:24:25.413Z,69.50
2022-12-19T03:27:01.923Z,69.50
2022-12-19T03:29:34.404Z,69.50
2022-12-19T03:32:07.352Z,69.60
2022-12-19T03:34:56.076Z,69.60
2022-12-19T03:37:27.429Z,69.70
2022-12-19T03:39:58.502Z,69.70
2022-12-19T03:42:47.205Z,69.70
2022-12-19T03:45:23.443Z,69.80
2022-12-19T03:48:00.472Z,69.80
2022-12-19T03:50:37.479Z,69.90
2022-12-19T03:53:18.070Z,69.90
2022-12-19T03:55:49.723Z,69.80
2022-12-19T03:58:27.392Z,69.90
2022-12-19T04:00:55.936Z,70.00
2022-12-19T04:03:24.188Z,69.90
2022-12-19T04:05:53.937Z,69.90
2022-12-19T04:08:23.785Z,69.80
2022-12-19T04:10:57.498Z,69.90
2022-12-19T04:13:43.708Z,70.50
2022-12-19T04:16:38.360Z,69.70
2022-12-19T04:19:28.925Z,69.70
2022-12-19T04:22:04.415Z,69.90
2022-12-19T04:24:35.967Z,69.80
2022-12-19T04:27:07.353Z,69.90
2022-12-19T04:29:36.853Z,70.00
2022-12-19T04:32:06.521Z,70.00
2022-12-19T04:34:34.802Z,70.00
2022-12-19T04:37:04.779Z,70.00
2022-12-19T04:39:32.922Z,70.10
2022-12-19T04:42:00.359Z,70.10
2022-12-19T04:44:27.671Z,70.00
2022-12-19T04:46:55.146Z,70.00
2022-12-19T04:49:22.422Z,70.00
2022-12-19T04:51:50.002Z,70.00
2022-12-19T04:54:17.296Z,69.80
2022-12-19T04:56:44.535Z,69.80
2022-12-19T04:59:11.785Z,69.80
2022-12-19T05:01:39.163Z,69.70
2022-12-19T05:04:06.874Z,69.70
2022-12-19T05:06:34.311Z,69.60
2022-12-19T05:09:01.826Z,69.60
2022-12-19T05:11:29.408Z,69.60
2022-12-19T05:13:58.721Z,69.60
2022-12-19T05:16:26.583Z,69.60
2022-12-19T05:18:54.443Z,69.80
2022-12-19T05:21:23.204Z,69.80
2022-12-19T05:23:51.327Z,69.90
2022-12-19T05:26:20.074Z,69.90
2022-12-19T05:28:47.697Z,69.90
2022-12-19T05:31:20.451Z,69.80
2022-12-19T05:33:49.078Z,69.70
2022-12-19T05:36:18.501Z,69.60
2022-12-19T05:38:46.379Z,69.60
2022-12-19T05:41:16.283Z,69.40
2022-12-19T05:43:51.213Z,69.40
2022-12-19T05:46:19.451Z,69.30
2022-12-19T05:48:47.690Z,69.20
2022-12-19T05:51:15.396Z,69.20
2022-12-19T05:53:42.951Z,69.20
2022-12-19T05:56:19.544Z,69.20
2022-12-19T05:58:47.326Z,69.20
2022-12-19T06:01:18.446Z,69.40
2022-12-19T06:03:46.966Z,69.30
2022-12-19T06:06:20.187Z,69.30
2022-12-19T06:08:47.960Z,69.30
2022-12-19T06:11:16.616Z,69.30
2022-12-19T06:13:44.029Z,69.30
2022-12-19T06:16:14.381Z,69.40
2022-12-19T06:18:45.085Z,69.20
2022-12-19T06:21:15.554Z,69.20
2022-12-19T06:23:44.315Z,69.00
2022-12-19T06:26:19.175Z,69.00
2022-12-19T06:28:49.064Z,69.00
2022-12-19T06:31:17.446Z,69.00
2022-12-19T06:33:45.234Z,69.00
2022-12-19T06:36:18.731Z,69.00
2022-12-19T06:38:46.227Z,69.00
2022-12-19T06:41:33.399Z,68.90
2022-12-19T06:44:02.599Z,69.00
2022-12-19T06:46:30.506Z,69.00
2022-12-19T06:48:57.963Z,68.90
2022-12-19T06:51:25.540Z,69.10
2022-12-19T06:53:53.719Z,69.20
2022-12-19T06:56:21.564Z,69.50
2022-12-19T06:58:49.716Z,69.70
2022-12-19T07:01:19.344Z,69.50
2022-12-19T07:03:48.414Z,69.70
2022-12-19T07:06:16.213Z,69.80
2022-12-19T07:08:43.703Z,69.90
2022-12-19T07:11:11.191Z,70.00
2022-12-19T07:13:38.617Z,69.90
2022-12-19T07:16:06.982Z,70.00
2022-12-19T07:18:39.357Z,70.00
2022-12-19T07:21:08.537Z,70.10
2022-12-19T07:23:36.231Z,70.20
2022-12-19T07:26:03.887Z,70.30
2022-12-19T07:28:34.260Z,70.40
2022-12-19T07:31:01.705Z,70.50
2022-12-19T07:33:29.200Z,70.70
2022-12-19T07:35:56.598Z,70.60
2022-12-19T07:38:24.178Z,70.70
2022-12-19T07:40:51.570Z,70.70
2022-12-19T07:43:19.080Z,70.80
2022-12-19T07:45:46.733Z,71.00
2022-12-19T07:48:14.265Z,71.00
2022-12-19T07:50:41.709Z,71.10
2022-12-19T07:53:09.049Z,71.20
2022-12-19T07:55:36.518Z,71.30
2022-12-19T07:58:04.286Z,71.40
2022-12-19T08:00:31.761Z,71.40
2022-12-19T08:03:00.277Z,71.60
2022-12-19T08:05:27.677Z,71.80
2022-12-19T08:07:55.534Z,72.10
2022-12-19T08:10:23.737Z,72.30
2022-12-19T08:12:51.432Z,72.80
2022-12-19T08:15:19.177Z,73.00
2022-12-19T08:17:46.640Z,73.20
2022-12-19T08:20:14.167Z,73.40
2022-12-19T08:22:41.780Z,73.80
2022-12-19T08:25:09.506Z,74.10
2022-12-19T08:27:38.805Z,74.00
2022-12-19T08:30:07.826Z,74.00
2022-12-19T08:32:36.455Z,73.80
2022-12-19T08:35:04.228Z,73.70
2022-12-19T08:37:31.694Z,73.70
2022-12-19T08:39:59.120Z,73.60
2022-12-19T08:42:26.594Z,73.60
2022-12-19T08:44:54.030Z,73.80
2022-12-19T08:47:21.464Z,74.20
2022-12-19T08:49:48.918Z,74.30
2022-12-19T08:52:17.665Z,74.40
2022-12-19T08:54:45.356Z,74.50
2022-12-19T08:57:12.938Z,74.10
2022-12-19T08:59:40.578Z,73.80
2022-12-19T09:02:10.392Z,73.50
2022-12-19T09:04:38.236Z,73.00
2022-12-19T09:07:25.981Z,72.90
2022-12-19T09:09:55.903Z,73.20
2022-12-19T09:12:23.470Z,73.00
2022-12-19T09:14:51.154Z,72.90
2022-12-19T09:17:19.190Z,72.80
2022-12-19T09:19:47.769Z,73.00
2022-12-19T09:22:16.637Z,73.20
2022-12-19T09:24:44.486Z,73.10
2022-12-19T09:27:11.982Z,72.90
2022-12-19T09:29:39.476Z,72.80
2022-12-19T09:32:06.869Z,72.80
2022-12-19T09:34:38.608Z,72.60
2022-12-19T09:37:15.661Z,72.50
2022-12-19T09:39:48.467Z,72.40
2022-12-19T09:42:42.667Z,72.30
2022-12-19T09:45:35.395Z,72.30
2022-12-19T09:48:03.548Z,72.30
2022-12-19T09:50:50.656Z,72.60
2022-12-19T09:53:53.740Z,72.50
2022-12-19T09:56:26.174Z,72.50
2022-12-19T09:59:00.941Z,72.60
2022-12-19T10:01:50.888Z,72.60
2022-12-19T10:04:19.563Z,72.70
2022-12-19T10:07:18.209Z,72.50
2022-12-19T10:11:17.652Z,72.50
2022-12-19T10:12:49.205Z,72.50
2022-12-19T10:15:36.605Z,72.30
2022-12-19T10:18:19.478Z,72.30
2022-12-19T10:20:58.235Z,72.20
2022-12-19T10:23:42.208Z,72.10
2022-12-19T10:26:21.293Z,72.00
2022-12-19T10:29:07.276Z,71.90
2022-12-19T10:31:45.115Z,71.90
2022-12-19T10:34:19.882Z,72.00
2022-12-19T10:37:25.549Z,72.10
2022-12-19T10:39:59.808Z,72.00
2022-12-19T10:42:34.403Z,72.10
2022-12-19T10:45:14.325Z,72.10
2022-12-19T10:47:42.507Z,71.90
2022-12-19T10:50:27.700Z,72.00
2022-12-19T10:53:05.124Z,72.10
2022-12-19T10:55:55.691Z,72.10
2022-12-19T10:58:31.983Z,72.00
2022-12-19T11:01:21.824Z,71.90
2022-12-19T11:03:56.277Z,71.80
2022-12-19T11:06:51.773Z,72.00
2022-12-19T11:09:30.813Z,72.10
2022-12-19T11:16:39.857Z,71.90
2022-12-19T11:19:51.723Z,71.90
2022-12-19T11:28:28.993Z,72.10
2022-12-19T11:29:27.155Z,72.30
2022-12-19T11:29:31.407Z,72.50
2022-12-19T11:29:32.818Z,72.40
2022-12-19T11:33:19.015Z,72.50
2022-12-19T11:35:53.036Z,72.60
2022-12-19T11:38:26.427Z,72.70
2022-12-19T11:40:57.354Z,72.90
2022-12-19T11:43:49.812Z,72.90
2022-12-19T11:46:25.480Z,72.80
2022-12-19T11:48:59.644Z,73.60
2022-12-19T11:51:41.431Z,73.10
2022-12-19T11:54:23.028Z,73.00
2022-12-19T11:56:50.596Z,72.90
2022-12-19T11:59:30.601Z,72.70
2022-12-19T12:02:02.304Z,72.60
2022-12-19T12:04:53.184Z,72.50
2022-12-19T12:07:56.648Z,72.40
2022-12-19T12:14:05.884Z,72.50
2022-12-19T12:17:28.919Z,72.50
2022-12-19T12:31:00.950Z,72.60
2022-12-19T12:31:28.907Z,72.70
2022-12-19T12:31:42.625Z,72.70
2022-12-19T12:31:42.782Z,72.70
2022-12-19T12:32:02.054Z,72.70
2022-12-19T12:35:40.933Z,72.90
2022-12-19T12:38:34.594Z,72.90
2022-12-19T12:41:20.244Z,73.00
2022-12-19T12:43:58.236Z,72.90
2022-12-19T12:46:36.056Z,72.90
2022-12-19T12:49:05.968Z,72.80
2022-12-19T12:51:34.901Z,72.80
2022-12-19T12:54:09.463Z,73.00
2022-12-19T12:56:37.639Z,73.10
2022-12-19T12:59:19.990Z,73.20
2022-12-19T13:01:58.761Z,73.10
2022-12-19T13:04:30.872Z,72.70
2022-12-19T13:07:25.069Z,72.80
2022-12-19T13:10:14.965Z,72.80
2022-12-19T13:13:14.284Z,72.30
2022-12-19T13:15:45.913Z,72.20
2022-12-19T13:18:37.768Z,72.10
2022-12-19T13:21:07.971Z,72.00
2022-12-19T13:23:38.133Z,71.90
2022-12-19T13:26:22.974Z,71.90
2022-12-19T13:28:50.625Z,71.70
2022-12-19T13:31:22.908Z,71.70
2022-12-19T13:33:55.619Z,71.60
2022-12-19T13:39:47.981Z,71.50
2022-12-19T13:40:08.717Z,71.80
2022-12-19T13:43:10.106Z,71.50
2022-12-19T13:45:41.476Z,71.20
2022-12-19T13:48:16.115Z,71.30
2022-12-19T13:50:47.513Z,71.10
2022-12-19T13:53:23.880Z,71.10
2022-12-19T13:55:58.754Z,71.20
2022-12-19T13:58:32.163Z,71.30
2022-12-19T14:01:06.837Z,71.30
2022-12-19T14:03:45.035Z,71.60
2022-12-19T14:06:24.001Z,71.80
2022-12-19T14:08:59.295Z,72.00
2022-12-19T14:13:36.759Z,72.20
2022-12-19T14:14:57.940Z,72.40
2022-12-19T14:17:38.237Z,72.50
2022-12-19T14:22:05.976Z,72.60
2022-12-19T14:23:10.896Z,72.60
2022-12-19T14:28:14.182Z,72.80
2022-12-19T14:28:56.125Z,72.90
2022-12-19T14:31:25.167Z,73.00
2022-12-19T14:34:18.548Z,73.00
2022-12-19T14:36:49.522Z,73.10
2022-12-19T14:39:22.752Z,73.30
2022-12-19T14:42:19.426Z,73.30
2022-12-19T14:51:51.734Z,73.30
2022-12-19T14:52:44.922Z,73.30
2022-12-19T14:54:08.841Z,73.40
2022-12-19T14:54:37.842Z,73.40
2022-12-19T14:56:47.406Z,73.40
2022-12-19T14:59:22.507Z,73.40
2022-12-19T15:01:55.780Z,73.40
2022-12-19T15:04:50.609Z,73.50
2022-12-19T15:07:27.408Z,73.50
2022-12-19T15:11:05.356Z,73.50
2022-12-19T15:14:48.068Z,73.50
2022-12-19T15:16:23.956Z,73.40
2022-12-19T15:18:55.042Z,73.30
2022-12-19T15:21:22.299Z,73.30
2022-12-19T15:23:49.611Z,73.30
2022-12-19T15:26:30.355Z,73.30
2022-12-19T15:28:58.565Z,73.30
2022-12-19T15:31:41.074Z,73.30
2022-12-19T15:34:40.187Z,73.40
2022-12-19T15:37:16.697Z,73.30
2022-12-19T15:39:44.829Z,73.30
2022-12-19T15:42:24.409Z,73.30
2022-12-19T15:44:55.684Z,73.70
2022-12-19T15:47:30.616Z,73.40
2022-12-19T15:50:02.614Z,73.50
2022-12-19T15:52:30.109Z,73.50
2022-12-19T15:54:57.582Z,73.60
2022-12-19T15:57:33.638Z,73.50
2022-12-19T16:00:05.313Z,73.60
2022-12-19T16:05:22.869Z,73.60
2022-12-19T16:07:50.312Z,73.40
2022-12-19T16:10:18.059Z,73.50
2022-12-19T16:12:52.772Z,73.30
2022-12-19T16:15:27.521Z,74.10
2022-12-19T16:17:56.667Z,73.50
2022-12-19T16:20:26.932Z,73.50
2022-12-19T16:22:57.839Z,73.60
2022-12-19T16:25:45.442Z,73.70
2022-12-19T16:28:28.628Z,73.80
2022-12-19T16:30:58.092Z,73.80
2022-12-19T16:33:28.688Z,74.00
2022-12-19T16:36:06.042Z,74.00
2022-12-19T16:38:34.838Z,74.10
2022-12-19T16:41:02.419Z,74.10
2022-12-19T16:43:35.756Z,74.10
2022-12-19T16:46:06.862Z,74.10
2022-12-19T16:48:35.944Z,74.10
2022-12-19T16:51:04.193Z,74.10
2022-12-19T16:53:31.412Z,74.10
2022-12-19T16:56:00.766Z,74.00
2022-12-19T16:58:29.265Z,73.90
2022-12-19T17:00:56.735Z,74.00
2022-12-19T17:03:41.542Z,73.90
2022-12-19T17:06:13.215Z,73.80
2022-12-19T17:08:40.431Z,73.90
2022-12-19T17:11:21.112Z,73.90
2022-12-19T17:13:52.638Z,73.80
2022-12-19T17:16:20.221Z,73.70
2022-12-19T17:18:48.479Z,73.70
2022-12-19T17:21:21.772Z,73.60
2022-12-19T17:23:50.354Z,73.50
2022-12-19T17:26:18.588Z,73.50
2022-12-19T17:28:49.323Z,73.50
2022-12-19T17:31:43.164Z,73.40
2022-12-19T17:34:21.776Z,73.40
2022-12-19T17:36:49.396Z,73.30
2022-12-19T17:39:22.246Z,73.30
2022-12-19T17:41:50.589Z,73.30
2022-12-19T17:44:18.332Z,73.40
2022-12-19T17:46:47.261Z,73.30
2022-12-19T17:49:31.045Z,73.30
2022-12-19T17:51:59.917Z,73.30
2022-12-19T17:54:27.779Z,73.30
2022-12-19T17:56:55.739Z,73.30
2022-12-19T17:59:23.077Z,73.30
2022-12-19T18:01:50.686Z,73.20
2022-12-19T18:04:21.017Z,72.90
2022-12-19T18:06:49.260Z,73.60
2022-12-19T18:09:21.957Z,72.80
2022-12-19T18:11:50.975Z,72.80
2022-12-19T18:14:18.955Z,72.80
2022-12-19T18:16:50.116Z,73.00
2022-12-19T18:19:24.480Z,73.00
2022-12-19T18:21:51.983Z,73.00
2022-12-19T18:24:19.226Z,73.10
2022-12-19T18:26:46.759Z,73.00
2022-12-19T18:29:14.463Z,73.10
2022-12-19T18:31:48.383Z,73.20
2022-12-19T18:34:23.833Z,73.20
2022-12-19T18:36:53.876Z,73.10
2022-12-19T18:39:27.107Z,73.10
2022-12-19T18:41:55.107Z,73.10
2022-12-19T18:44:25.360Z,73.00
2022-12-19T18:46:52.918Z,72.90
2022-12-19T18:49:20.769Z,72.90
2022-12-19T18:51:48.162Z,72.80
2022-12-19T18:54:18.812Z,72.70
2022-12-19T18:56:47.130Z,72.60
2022-12-19T18:59:15.040Z,72.60
2022-12-19T19:01:46.442Z,72.60
2022-12-19T19:04:17.649Z,72.50
2022-12-19T19:06:51.544Z,72.50
2022-12-19T19:09:20.938Z,72.50
2022-12-19T19:12:08.575Z,72.40
2022-12-19T19:14:35.841Z,72.50
2022-12-19T19:17:05.920Z,72.50
2022-12-19T19:19:33.342Z,72.60
2022-12-19T19:22:00.782Z,72.60
2022-12-19T19:24:28.191Z,72.50
2022-12-19T19:26:55.705Z,72.50
2022-12-19T19:29:23.038Z,72.50
2022-12-19T19:31:52.528Z,72.60
2022-12-19T19:34:27.103Z,72.60
2022-12-19T19:36:57.215Z,72.60
2022-12-19T19:39:25.172Z,72.70
2022-12-19T19:41:53.611Z,72.60
2022-12-19T19:44:21.053Z,72.60
2022-12-19T19:46:48.837Z,72.50
2022-12-19T19:49:16.229Z,72.60
2022-12-19T19:51:43.717Z,72.60
2022-12-19T19:54:11.222Z,72.70
2022-12-19T19:56:39.080Z,72.60
2022-12-19T19:59:06.450Z,72.60
2022-12-19T20:01:34.056Z,72.70
2022-12-19T20:04:02.208Z,72.70
2022-12-19T20:06:29.933Z,72.70
2022-12-19T20:08:57.359Z,72.80
2022-12-19T20:11:24.898Z,72.80
2022-12-19T20:13:52.236Z,72.80
2022-12-19T20:16:20.102Z,72.90
2022-12-19T20:18:50.441Z,73.10
2022-12-19T20:21:19.688Z,73.00
2022-12-19T20:23:47.745Z,73.00
2022-12-19T20:26:17.055Z,73.00
2022-12-19T20:28:49.583Z,73.00
2022-12-19T20:31:19.701Z,73.00
2022-12-19T20:33:48.412Z,72.90
2022-12-19T20:36:17.149Z,73.00
2022-12-19T20:38:44.662Z,72.90
2022-12-19T20:41:12.503Z,73.00
2022-12-19T20:43:40.136Z,73.10
2022-12-19T20:46:10.535Z,73.10
2022-12-19T20:48:38.127Z,73.10
2022-12-19T20:51:06.630Z,73.00
2022-12-19T20:53:35.305Z,73.00
2022-12-19T20:56:04.358Z,73.10
2022-12-19T20:58:34.335Z,73.10
2022-12-19T21:01:06.300Z,73.00
2022-12-19T21:03:36.587Z,73.10
2022-12-19T21:06:05.190Z,73.10
2022-12-19T21:08:35.636Z,73.10
2022-12-19T21:11:05.303Z,73.00
2022-12-19T21:13:33.644Z,73.00
2022-12-19T21:16:03.574Z,73.00
2022-12-19T21:18:31.085Z,73.00
2022-12-19T21:20:59.863Z,72.90
2022-12-19T21:23:28.001Z,73.10
2022-12-19T21:26:01.288Z,73.10
2022-12-19T21:28:28.970Z,73.00
2022-12-19T21:31:18.580Z,73.00
2022-12-19T21:33:47.069Z,72.90
2022-12-19T21:36:22.048Z,72.90
2022-12-19T21:38:52.064Z,72.90
2022-12-19T21:41:20.435Z,73.60
2022-12-19T21:43:51.570Z,72.90
2022-12-19T21:46:20.727Z,72.90
2022-12-19T21:48:50.275Z,72.90
2022-12-19T21:51:19.949Z,72.80
2022-12-19T21:53:48.057Z,72.80
2022-12-19T21:56:26.435Z,72.70
2022-12-19T21:59:02.479Z,72.60
2022-12-19T22:01:30.900Z,72.70
2022-12-19T22:04:04.258Z,72.80
2022-12-19T22:06:33.796Z,72.80
2022-12-19T22:09:01.571Z,72.90
2022-12-19T22:11:30.278Z,73.00
2022-12-19T22:14:01.359Z,73.10
2022-12-19T22:16:29.393Z,73.00
2022-12-19T22:18:57.014Z,72.90
2022-12-19T22:21:25.572Z,73.10
2022-12-19T22:23:59.890Z,73.10
2022-12-19T22:26:30.140Z,73.10
2022-12-19T22:28:58.183Z,73.20
2022-12-19T22:31:28.438Z,73.30
2022-12-19T22:33:58.638Z,73.20
2022-12-19T22:36:28.763Z,72.90
2022-12-19T22:38:58.167Z,72.70
2022-12-19T22:41:25.855Z,72.60
2022-12-19T22:43:54.477Z,72.70
2022-12-19T22:46:31.546Z,72.70
2022-12-19T22:49:01.228Z,72.30
2022-12-19T22:51:30.609Z,72.10
2022-12-19T22:53:59.479Z,72.10
2022-12-19T22:56:28.960Z,72.40
2022-12-19T22:58:59.316Z,72.60
2022-12-19T23:01:30.046Z,72.70
2022-12-19T23:03:59.811Z,72.50
2022-12-19T23:06:29.244Z,72.40
2022-12-19T23:08:57.732Z,72.50
2022-12-19T23:11:35.042Z,73.00
2022-12-19T23:14:04.654Z,73.60
2022-12-19T23:16:32.323Z,73.80
2022-12-19T23:18:59.955Z,73.80
2022-12-19T23:21:27.757Z,73.80
2022-12-19T23:23:55.791Z,73.50
2022-12-19T23:26:26.472Z,73.30
2022-12-19T23:28:57.035Z,73.40
2022-12-19T23:31:25.107Z,73.70
2022-12-19T23:33:53.013Z,73.90
2022-12-19T23:36:38.210Z,73.90
2022-12-19T23:39:07.934Z,73.90
2022-12-19T23:41:35.244Z,73.90
2022-12-19T23:44:03.176Z,73.70
2022-12-19T23:46:30.662Z,73.60
2022-12-19T23:48:57.995Z,73.50
2022-12-19T23:51:27.302Z,73.40
2022-12-19T23:53:56.125Z,73.40
2022-12-19T23:56:29.649Z,73.30
2022-12-19T23:58:58.242Z,73.30
